Terminal Aerodrome Forecast
Issued by NWS

Home | Current Version | Previous Version | Text Only | Print | Product List | Glossary On
Versions: 1 2 3 4 5 6 7 8 9 10 11 12
000
FTUS46 KHNX 071139
TAFBFL
TAF
KBFL 071139Z 0712/0812 VRB03KT 3SM HZ BKN050
     FM072000 VRB03KT 5SM HZ BKN250
     FM080300 VRB03KT 5SM HZ BKN100=

USA.gov is the U.S. government's official web portal to all federal, state and local government web resources and services.